Time;durP1;ratioP1;P1;durP2;ratioP2;P2;SDS_P1;SDS_P2;PMS_P1;PMS_P2;Temp;Humidity;BMP_temperature;BMP_pressure;BME280_temperature;BME280_humidity;BME280_pressure;Samples;Min_cycle;Max_cycle;Signal;HPM_P1;HPM_P2
2021/11/10 00:00:41;;;;;;;9.70;7.60;;;7.80;79.40;;;;;;5053717;28;20504;-65
2021/11/10 00:03:10;;;;;;;10.43;8.60;;;7.80;79.70;;;;;;5052992;28;20476;-65
2021/11/10 00:05:43;;;;;;;11.30;8.53;;;7.80;79.90;;;;;;5052964;28;20446;-65
2021/11/10 00:08:12;;;;;;;11.20;7.40;;;7.70;79.80;;;;;;5053136;28;20434;-65
2021/11/10 00:10:44;;;;;;;10.20;8.20;;;7.70;80.60;;;;;;5053158;28;20841;-65
2021/11/10 00:13:20;;;;;;;11.73;7.93;;;7.60;79.80;;;;;;5052692;28;20466;-65
2021/11/10 00:15:50;;;;;;;12.17;8.60;;;7.70;80.00;;;;;;5053404;28;20410;-65
2021/11/10 00:18:20;;;;;;;15.13;9.50;;;7.60;80.10;;;;;;5053118;28;20500;-65
2021/11/10 00:20:49;;;;;;;17.37;8.30;;;7.60;80.30;;;;;;5052879;28;20442;-65
2021/11/10 00:23:17;;;;;;;14.50;9.10;;;7.60;80.40;;;;;;5052875;28;20481;-65
2021/11/10 00:25:45;;;;;;;9.77;7.83;;;7.60;80.30;;;;;;5053206;28;20854;-65
2021/11/10 00:28:14;;;;;;;11.40;7.60;;;7.50;79.80;;;;;;5052986;28;20507;-65
2021/11/10 00:30:41;;;;;;;11.07;7.50;;;7.50;79.80;;;;;;5052677;28;20485;-65
2021/11/10 00:33:12;;;;;;;11.23;7.50;;;7.40;79.90;;;;;;5052957;28;20893;-65
2021/11/10 00:35:40;;;;;;;11.57;8.40;;;7.40;79.80;;;;;;5053115;28;20434;-65
2021/11/10 00:38:09;;;;;;;11.33;7.83;;;7.40;79.40;;;;;;5053118;28;20547;-65
2021/11/10 00:40:36;;;;;;;12.60;7.70;;;7.40;79.40;;;;;;5053349;28;20456;-65
2021/11/10 00:43:05;;;;;;;11.70;6.70;;;7.30;79.10;;;;;;5056423;28;20542;-65
2021/11/10 00:45:33;;;;;;;10.43;7.33;;;7.20;78.30;;;;;;5056412;28;20484;-65
2021/11/10 00:48:00;;;;;;;7.60;5.73;;;7.10;78.00;;;;;;5056493;28;20453;-65
2021/11/10 00:50:28;;;;;;;8.77;6.70;;;7.10;78.20;;;;;;5056723;28;20543;-65
2021/11/10 00:52:55;;;;;;;8.80;6.93;;;7.10;78.40;;;;;;5056204;28;20985;-65
2021/11/10 00:55:25;;;;;;;11.33;7.83;;;7.10;78.30;;;;;;5055654;28;20463;-65
2021/11/10 00:57:53;;;;;;;11.83;6.60;;;7.00;78.50;;;;;;5056389;28;20457;-64
2021/11/10 01:00:23;;;;;;;10.60;7.13;;;7.00;78.60;;;;;;5056197;28;20485;-65
2021/11/10 01:02:51;;;;;;;9.83;6.90;;;7.00;78.70;;;;;;5056395;28;20540;-65
2021/11/10 01:05:22;;;;;;;13.13;8.47;;;7.00;78.70;;;;;;5056222;28;20476;-65
2021/11/10 01:07:49;;;;;;;13.47;9.43;;;6.90;78.90;;;;;;5056126;28;20465;-65
2021/11/10 01:10:17;;;;;;;12.67;8.80;;;7.00;79.50;;;;;;5055724;28;20452;-65
2021/11/10 01:12:44;;;;;;;15.40;10.03;;;6.90;79.60;;;;;;5055803;28;20515;-65
2021/11/10 01:15:13;;;;;;;11.70;8.70;;;6.90;79.50;;;;;;5056111;28;20452;-65
2021/11/10 01:17:42;;;;;;;12.13;8.83;;;6.90;79.30;;;;;;5056490;28;20445;-65
2021/11/10 01:20:14;;;;;;;13.30;9.40;;;6.90;79.30;;;;;;5056391;28;20540;-65
2021/11/10 01:22:41;;;;;;;16.37;10.33;;;6.90;79.50;;;;;;5055883;28;20492;-66
2021/11/10 01:25:11;;;;;;;12.80;9.30;;;6.90;79.50;;;;;;5055753;28;20492;-65
2021/11/10 01:27:41;;;;;;;15.20;9.00;;;6.90;79.40;;;;;;5056016;28;20430;-65
2021/11/10 01:30:16;;;;;;;14.67;9.93;;;6.80;79.40;;;;;;5056166;28;20415;-65
2021/11/10 01:32:47;;;;;;;12.47;9.07;;;6.80;79.50;;;;;;5055918;28;20456;-65
2021/11/10 01:35:15;;;;;;;14.10;9.77;;;6.80;79.40;;;;;;5056105;28;20426;-65
2021/11/10 01:37:45;;;;;;;14.30;8.60;;;6.70;79.40;;;;;;5055673;28;20441;-65
2021/11/10 01:40:15;;;;;;;11.57;8.20;;;6.70;79.30;;;;;;5055588;28;20422;-65
2021/11/10 01:42:46;;;;;;;11.40;8.50;;;6.70;79.50;;;;;;5055187;28;20509;-65
2021/11/10 01:45:16;;;;;;;10.63;6.53;;;6.70;79.80;;;;;;5055718;28;20606;-65
2021/11/10 01:47:46;;;;;;;15.03;7.30;;;6.70;80.10;;;;;;5055825;28;20505;-65
2021/11/10 01:50:15;;;;;;;17.67;8.90;;;6.70;80.40;;;;;;5055314;28;20901;-65
2021/11/10 01:52:47;;;;;;;11.30;7.87;;;6.70;80.70;;;;;;5055180;28;20490;-66
2021/11/10 01:55:16;;;;;;;9.00;7.40;;;6.60;80.40;;;;;;5055207;28;20444;-65
2021/11/10 01:57:44;;;;;;;12.13;8.80;;;6.60;80.40;;;;;;5055470;28;20441;-65
2021/11/10 02:00:17;;;;;;;11.87;7.33;;;6.60;80.60;;;;;;5054870;28;20459;-65
2021/11/10 02:02:46;;;;;;;8.90;6.77;;;6.60;80.80;;;;;;5055823;28;20474;-65
2021/11/10 02:05:18;;;;;;;12.20;8.50;;;6.60;80.90;;;;;;5055752;28;20459;-65
2021/11/10 02:07:48;;;;;;;12.27;8.90;;;6.60;80.90;;;;;;5054497;28;20453;-65
2021/11/10 02:10:20;;;;;;;9.63;6.77;;;6.60;81.20;;;;;;5055219;28;20449;-65
2021/11/10 02:12:48;;;;;;;10.03;6.63;;;6.60;81.30;;;;;;5055196;28;20489;-65
2021/11/10 02:15:19;;;;;;;18.07;7.77;;;6.60;81.50;;;;;;5055356;28;20794;-65
2021/11/10 02:17:51;;;;;;;14.03;7.10;;;6.60;81.60;;;;;;5055495;28;20445;-65
2021/11/10 02:20:22;;;;;;;16.33;8.20;;;6.60;81.60;;;;;;5055284;28;20441;-65
2021/11/10 02:22:53;;;;;;;11.83;7.60;;;6.60;82.30;;;;;;5054717;28;20497;-65
2021/11/10 02:25:28;;;;;;;13.57;7.90;;;6.60;82.00;;;;;;5054801;28;20440;-65
2021/11/10 02:27:56;;;;;;;9.50;8.10;;;6.60;82.20;;;;;;5054568;28;20425;-65
2021/11/10 02:30:26;;;;;;;11.27;8.60;;;6.60;82.60;;;;;;5054643;28;20980;-65
2021/11/10 02:32:58;;;;;;;18.73;9.00;;;6.70;83.10;;;;;;5054611;28;20493;-65
2021/11/10 02:35:30;;;;;;;12.07;7.83;;;6.70;83.30;;;;;;5055083;28;20496;-65
2021/11/10 02:38:01;;;;;;;13.33;8.97;;;6.70;83.60;;;;;;5054715;28;20516;-65
2021/11/10 02:40:33;;;;;;;14.27;8.03;;;6.70;83.80;;;;;;5054876;28;20441;-64
2021/11/10 02:43:01;;;;;;;14.67;7.77;;;6.70;84.30;;;;;;5054454;28;20491;-65
2021/11/10 02:45:29;;;;;;;11.70;8.57;;;6.70;84.70;;;;;;5054620;28;20465;-64
2021/11/10 02:47:58;;;;;;;11.97;8.03;;;6.70;85.30;;;;;;5054610;28;20464;-64
2021/11/10 02:50:30;;;;;;;9.10;8.00;;;6.70;85.70;;;;;;5054644;28;20458;-64
2021/11/10 02:52:59;;;;;;;10.37;7.07;;;6.70;85.90;;;;;;5054422;28;20489;-65
2021/11/10 02:55:27;;;;;;;14.47;8.00;;;6.70;85.50;;;;;;5054012;28;20530;-64
2021/11/10 02:57:55;;;;;;;9.47;7.60;;;6.60;85.00;;;;;;5054572;28;20453;-64
2021/11/10 03:00:23;;;;;;;10.80;8.70;;;6.60;84.70;;;;;;5054455;28;20450;-64
2021/11/10 03:02:54;;;;;;;15.03;8.73;;;6.60;84.50;;;;;;5053695;28;20462;-64
2021/11/10 03:05:21;;;;;;;11.17;6.80;;;6.70;85.10;;;;;;5053796;28;20799;-64
2021/11/10 03:07:49;;;;;;;10.07;7.70;;;6.60;85.50;;;;;;5053732;28;20457;-64
2021/11/10 03:10:19;;;;;;;10.10;7.10;;;6.60;86.30;;;;;;5053874;28;20449;-64
2021/11/10 03:12:46;;;;;;;11.47;8.00;;;6.60;86.80;;;;;;5053151;28;20489;-65
2021/11/10 03:15:14;;;;;;;10.67;7.60;;;6.50;87.00;;;;;;5053726;28;20464;-64
2021/11/10 03:17:41;;;;;;;8.97;6.63;;;6.50;87.30;;;;;;5052939;28;20445;-64
2021/11/10 03:20:13;;;;;;;9.43;6.93;;;6.50;87.60;;;;;;5053798;28;20450;-64
2021/11/10 03:22:40;;;;;;;7.57;6.53;;;6.50;87.70;;;;;;5053958;28;20484;-64
2021/11/10 03:25:08;;;;;;;11.50;7.50;;;6.50;87.80;;;;;;5053925;28;20456;-65
2021/11/10 03:27:45;;;;;;;12.60;7.60;;;6.50;88.00;;;;;;5054178;28;20489;-64
2021/11/10 03:30:13;;;;;;;8.70;7.00;;;6.50;87.80;;;;;;5053568;28;20449;-64
2021/11/10 03:32:41;;;;;;;7.90;6.63;;;6.50;87.70;;;;;;5053917;28;20485;-64
2021/11/10 03:35:09;;;;;;;9.50;7.13;;;6.50;87.40;;;;;;5053841;28;20539;-64
2021/11/10 03:37:39;;;;;;;7.60;6.53;;;6.40;87.10;;;;;;5053527;28;20449;-64
2021/11/10 03:40:09;;;;;;;13.73;6.13;;;6.40;87.40;;;;;;5053521;28;20516;-64
2021/11/10 03:42:38;;;;;;;9.20;5.03;;;6.40;87.30;;;;;;5051649;28;20528;-64
2021/11/10 03:45:07;;;;;;;10.00;6.83;;;6.40;87.20;;;;;;5053591;28;20458;-64
2021/11/10 03:47:34;;;;;;;8.00;5.93;;;6.50;87.30;;;;;;5053252;28;20537;-65
2021/11/10 03:50:03;;;;;;;12.33;5.97;;;6.50;87.10;;;;;;5053092;28;20434;-64
2021/11/10 03:52:33;;;;;;;15.67;7.60;;;6.40;86.30;;;;;;5052850;28;20473;-64
2021/11/10 03:55:02;;;;;;;8.47;6.87;;;6.40;86.40;;;;;;5053140;28;20461;-64
2021/11/10 03:57:30;;;;;;;9.73;6.17;;;6.40;86.40;;;;;;5053217;28;20460;-64
2021/11/10 04:00:00;;;;;;;10.50;6.50;;;6.40;86.40;;;;;;5052698;28;20446;-64
2021/11/10 04:02:28;;;;;;;8.03;6.13;;;6.40;86.40;;;;;;5052710;28;20450;-65
2021/11/10 04:04:56;;;;;;;11.03;6.93;;;6.40;86.30;;;;;;5052808;28;20441;-64
2021/11/10 04:07:25;;;;;;;7.73;6.77;;;6.40;86.20;;;;;;5052910;28;20453;-64
2021/11/10 04:09:53;;;;;;;10.23;6.00;;;6.40;86.20;;;;;;5052829;28;20893;-64
2021/11/10 04:12:22;;;;;;;13.67;6.50;;;6.40;86.20;;;;;;5052641;28;20482;-64
2021/11/10 04:14:50;;;;;;;6.97;5.47;;;6.40;85.90;;;;;;5052696;28;20441;-64
2021/11/10 04:17:20;;;;;;;9.00;6.10;;;6.40;85.70;;;;;;5056587;28;20457;-64
2021/11/10 04:19:48;;;;;;;7.00;6.30;;;6.40;85.60;;;;;;5057616;28;20450;-63
2021/11/10 04:22:20;;;;;;;10.03;6.00;;;6.40;85.80;;;;;;5057424;28;20437;-63
2021/11/10 04:24:48;;;;;;;8.10;6.23;;;6.40;85.60;;;;;;5056848;28;20434;-64
2021/11/10 04:27:18;;;;;;;13.70;5.97;;;6.40;85.30;;;;;;5056688;28;20499;-64
2021/11/10 04:29:47;;;;;;;9.10;5.80;;;6.40;84.80;;;;;;5056684;28;20456;-64
2021/11/10 04:32:15;;;;;;;7.67;5.80;;;6.30;85.10;;;;;;5056677;28;20481;-64
2021/11/10 04:34:47;;;;;;;7.50;5.67;;;6.30;84.10;;;;;;5056144;28;20464;-64
2021/11/10 04:37:18;;;;;;;7.57;5.33;;;6.30;83.70;;;;;;5057041;28;20441;-64
2021/11/10 04:39:46;;;;;;;8.30;5.60;;;6.30;83.50;;;;;;5056578;28;20436;-64
2021/11/10 04:42:17;;;;;;;7.63;5.50;;;6.20;83.10;;;;;;5056446;28;20544;-64
2021/11/10 04:44:50;;;;;;;7.83;5.93;;;6.20;82.90;;;;;;5056443;28;20436;-64
2021/11/10 04:47:19;;;;;;;7.73;5.10;;;6.20;82.90;;;;;;5056701;28;20433;-64
2021/11/10 04:49:49;;;;;;;8.03;5.10;;;6.20;83.20;;;;;;5056456;28;20449;-63
2021/11/10 04:52:17;;;;;;;6.90;4.70;;;6.20;82.70;;;;;;5056195;28;20543;-65
2021/11/10 04:54:47;;;;;;;7.30;5.70;;;6.10;82.10;;;;;;5056603;28;21007;-63
2021/11/10 04:57:15;;;;;;;5.97;5.23;;;6.10;82.10;;;;;;5056348;28;20454;-63
2021/11/10 04:59:44;;;;;;;6.77;5.37;;;6.10;82.30;;;;;;5056053;28;20455;-63
2021/11/10 05:02:25;;;;;;;7.60;6.00;;;6.10;82.50;;;;;;5055918;28;20452;-63
2021/11/10 05:04:56;;;;;;;10.03;5.07;;;6.00;82.50;;;;;;5056256;28;20416;-63
2021/11/10 05:07:25;;;;;;;5.70;4.90;;;6.10;82.70;;;;;;5056327;28;20433;-63
2021/11/10 05:09:56;;;;;;;7.27;5.50;;;6.00;82.50;;;;;;5056005;28;20440;-63
2021/11/10 05:12:28;;;;;;;7.33;5.80;;;6.00;82.60;;;;;;5056597;28;20508;-63
2021/11/10 05:14:56;;;;;;;7.27;5.70;;;6.00;82.80;;;;;;5056239;28;20623;-63
2021/11/10 05:17:26;;;;;;;10.30;6.77;;;6.00;83.40;;;;;;5055783;28;20937;-63
2021/11/10 05:19:55;;;;;;;7.33;6.07;;;6.00;82.60;;;;;;5055740;28;20445;-63
2021/11/10 05:22:24;;;;;;;8.57;6.07;;;6.00;82.70;;;;;;5055567;28;20438;-64
2021/11/10 05:24:52;;;;;;;14.30;6.77;;;6.00;82.60;;;;;;5055673;28;20445;-63
2021/11/10 05:27:21;;;;;;;8.60;6.20;;;5.90;82.50;;;;;;5055450;28;20480;-63
2021/11/10 05:29:49;;;;;;;7.27;5.40;;;5.90;82.30;;;;;;5055298;28;20453;-63
2021/11/10 05:32:17;;;;;;;6.97;5.37;;;5.90;82.40;;;;;;5055446;28;20480;-63
2021/11/10 05:34:48;;;;;;;8.10;6.40;;;5.90;82.90;;;;;;5055779;28;20521;-63
2021/11/10 05:37:16;;;;;;;14.13;7.17;;;5.90;83.30;;;;;;5055525;28;20487;-65
2021/11/10 05:39:43;;;;;;;11.20;7.40;;;5.90;83.70;;;;;;5055641;28;20449;-65
2021/11/10 05:42:10;;;;;;;11.27;6.90;;;5.90;84.10;;;;;;5055273;28;20937;-65
2021/11/10 05:44:37;;;;;;;10.00;7.40;;;5.80;83.90;;;;;;5055478;28;20519;-65
2021/11/10 05:47:04;;;;;;;6.77;5.70;;;5.90;84.00;;;;;;5055704;28;20452;-65
2021/11/10 05:49:30;;;;;;;7.60;6.70;;;5.80;83.80;;;;;;5055279;28;20450;-65
2021/11/10 05:51:57;;;;;;;8.03;6.77;;;5.90;83.70;;;;;;5055486;28;20484;-65
2021/11/10 05:54:25;;;;;;;9.43;6.50;;;5.80;83.30;;;;;;5055135;28;20468;-65
2021/11/10 05:56:52;;;;;;;8.40;6.43;;;5.80;83.10;;;;;;5055821;28;20445;-65
2021/11/10 05:59:19;;;;;;;7.87;6.53;;;5.80;82.90;;;;;;5055733;28;20445;-65
2021/11/10 06:01:45;;;;;;;12.33;6.73;;;5.70;82.50;;;;;;5055268;28;20459;-65
2021/11/10 06:04:12;;;;;;;8.30;6.10;;;5.80;82.30;;;;;;5054908;28;20981;-65
2021/11/10 06:06:40;;;;;;;8.00;6.13;;;5.70;81.90;;;;;;5054838;28;20450;-65
2021/11/10 06:09:07;;;;;;;7.07;4.93;;;5.70;81.90;;;;;;5055344;28;20512;-65
2021/11/10 06:11:35;;;;;;;9.20;6.27;;;5.70;82.10;;;;;;5055312;28;20452;-65
2021/11/10 06:14:01;;;;;;;7.63;6.83;;;5.70;82.30;;;;;;5054984;28;20493;-65
2021/11/10 06:16:29;;;;;;;8.50;6.60;;;5.60;82.20;;;;;;5054830;28;20442;-65
2021/11/10 06:18:56;;;;;;;7.60;5.50;;;5.60;82.10;;;;;;5055104;28;20450;-65
2021/11/10 06:21:22;;;;;;;9.00;5.90;;;5.60;82.10;;;;;;5055092;28;20450;-65
2021/11/10 06:23:49;;;;;;;11.70;7.30;;;5.60;81.90;;;;;;5054956;28;20465;-65
2021/11/10 06:26:16;;;;;;;7.27;6.57;;;5.60;81.80;;;;;;5054612;28;20946;-65
2021/11/10 06:28:44;;;;;;;16.37;7.40;;;5.50;81.70;;;;;;5055002;28;20436;-65
2021/11/10 06:31:11;;;;;;;8.57;6.20;;;5.50;82.20;;;;;;5054926;28;20449;-65
2021/11/10 06:33:37;;;;;;;6.80;6.10;;;5.50;82.40;;;;;;5054707;28;20486;-65
2021/11/10 06:36:05;;;;;;;11.97;6.20;;;5.50;82.50;;;;;;5054771;28;20446;-65
2021/11/10 06:38:31;;;;;;;10.50;6.27;;;5.40;82.40;;;;;;5053899;28;20449;-66
2021/11/10 06:40:58;;;;;;;9.23;6.80;;;5.40;82.40;;;;;;5054717;28;20477;-65
2021/11/10 06:43:26;;;;;;;11.70;5.93;;;5.40;82.40;;;;;;5054089;28;20478;-65
2021/11/10 06:45:54;;;;;;;8.50;7.40;;;5.30;82.10;;;;;;5054529;28;20456;-65
2021/11/10 06:48:20;;;;;;;11.73;7.70;;;5.40;82.30;;;;;;5054514;28;20457;-65
2021/11/10 06:50:47;;;;;;;8.70;7.13;;;5.30;82.80;;;;;;5054701;28;20445;-65
2021/11/10 06:53:14;;;;;;;12.00;7.80;;;5.30;83.60;;;;;;5054109;28;20488;-65
2021/11/10 06:55:41;;;;;;;16.23;8.50;;;5.30;84.20;;;;;;5054340;28;20453;-65
2021/11/10 06:58:08;;;;;;;12.70;8.00;;;5.40;84.70;;;;;;5054312;28;20453;-65
2021/11/10 07:00:35;;;;;;;14.17;10.03;;;5.40;85.10;;;;;;5053937;28;20453;-65
2021/11/10 07:03:04;;;;;;;15.87;9.20;;;5.40;85.40;;;;;;5054369;28;20466;-65
2021/11/10 07:05:30;;;;;;;12.07;9.57;;;5.40;86.40;;;;;;5054406;28;20438;-65
2021/11/10 07:07:57;;;;;;;15.20;9.53;;;5.40;86.00;;;;;;5054101;28;20507;-65
2021/11/10 07:10:24;;;;;;;14.07;9.80;;;5.40;86.50;;;;;;5054120;28;20450;-66
2021/11/10 07:12:51;;;;;;;16.07;8.27;;;5.40;86.40;;;;;;5053980;28;20489;-65
2021/11/10 07:15:18;;;;;;;15.67;8.80;;;5.40;86.00;;;;;;5053719;28;20448;-65
2021/11/10 07:17:44;;;;;;;13.00;8.60;;;5.30;85.30;;;;;;5054164;28;20481;-65
2021/11/10 07:20:13;;;;;;;11.83;8.13;;;5.40;85.40;;;;;;5053867;28;20446;-65
2021/11/10 07:22:39;;;;;;;9.03;6.80;;;5.30;85.20;;;;;;5053847;28;20465;-65
2021/11/10 07:25:08;;;;;;;9.20;7.00;;;5.30;85.00;;;;;;5053798;28;20449;-65
2021/11/10 07:27:34;;;;;;;9.37;7.50;;;5.30;84.60;;;;;;5053725;28;20467;-65
2021/11/10 07:30:01;;;;;;;9.50;7.70;;;5.30;84.40;;;;;;5053739;28;20469;-65
2021/11/10 07:32:28;;;;;;;12.10;9.50;;;5.20;84.30;;;;;;5053625;28;20484;-65
2021/11/10 07:34:55;;;;;;;11.50;7.33;;;5.20;85.20;;;;;;5053885;28;20450;-65
2021/11/10 07:37:23;;;;;;;14.47;9.40;;;5.20;86.40;;;;;;5053757;28;20430;-65
2021/11/10 07:39:50;;;;;;;14.57;9.47;;;5.30;86.80;;;;;;5053674;28;20461;-64
2021/11/10 07:42:16;;;;;;;11.73;7.60;;;5.30;87.60;;;;;;5053264;28;20483;-65
2021/11/10 07:44:44;;;;;;;13.10;8.53;;;5.30;87.90;;;;;;5053570;28;20445;-65
2021/11/10 07:47:14;;;;;;;17.47;8.40;;;5.30;87.30;;;;;;5053675;28;20480;-65
2021/11/10 07:49:43;;;;;;;14.20;8.83;;;5.30;87.00;;;;;;5053257;28;20454;-65
2021/11/10 07:52:09;;;;;;;14.80;9.10;;;5.30;87.40;;;;;;5053355;28;20497;-65
2021/11/10 07:54:38;;;;;;;14.17;9.80;;;5.30;87.50;;;;;;5053279;28;20488;-65
2021/11/10 07:57:05;;;;;;;12.13;8.93;;;5.40;88.10;;;;;;5053370;28;20441;-65
2021/11/10 07:59:32;;;;;;;11.83;8.30;;;5.40;88.20;;;;;;5053311;28;20456;-65
2021/11/10 08:01:59;;;;;;;13.90;9.47;;;5.50;88.20;;;;;;5054615;28;20454;-65
2021/11/10 08:04:26;;;;;;;11.67;8.63;;;5.40;88.20;;;;;;5053347;28;20468;-65
2021/11/10 08:06:52;;;;;;;17.27;9.17;;;5.50;88.60;;;;;;5052996;28;20940;-65
2021/11/10 08:09:19;;;;;;;12.60;9.10;;;5.50;88.90;;;;;;5053052;28;20450;-65
2021/11/10 08:11:47;;;;;;;14.57;8.67;;;5.60;89.50;;;;;;5053394;28;20457;-65
2021/11/10 08:14:14;;;;;;;12.63;8.80;;;5.60;89.90;;;;;;5052882;28;20484;-65
2021/11/10 08:16:41;;;;;;;14.20;8.87;;;5.60;90.00;;;;;;5053141;28;20446;-65
2021/11/10 08:19:08;;;;;;;11.50;8.17;;;5.70;90.10;;;;;;5053039;28;20453;-65
2021/11/10 08:21:35;;;;;;;13.50;9.13;;;5.80;90.10;;;;;;5053095;28;20457;-65
2021/11/10 08:24:04;;;;;;;11.63;8.20;;;5.80;90.20;;;;;;5052960;28;20461;-65
2021/11/10 08:26:30;;;;;;;9.23;7.67;;;5.90;90.30;;;;;;5053062;28;20449;-65
2021/11/10 08:28:59;;;;;;;15.80;8.80;;;6.00;90.20;;;;;;5053060;28;20460;-65
2021/11/10 08:31:26;;;;;;;12.30;8.87;;;6.00;90.20;;;;;;5053009;28;20446;-65
2021/11/10 08:33:52;;;;;;;20.53;8.50;;;6.10;90.00;;;;;;5052768;28;20485;-65
2021/11/10 08:36:19;;;;;;;13.13;8.33;;;6.10;89.90;;;;;;5053059;28;20446;-65
2021/11/10 08:38:46;;;;;;;9.47;7.53;;;6.20;89.70;;;;;;5052952;28;20531;-65
2021/11/10 08:41:13;;;;;;;16.60;9.00;;;6.20;89.40;;;;;;5053259;28;20445;-65
2021/11/10 08:43:39;;;;;;;11.40;9.63;;;6.30;89.40;;;;;;5052560;28;20478;-65
2021/11/10 08:46:08;;;;;;;13.00;8.13;;;6.40;89.30;;;;;;5052816;28;20452;-65
2021/11/10 08:48:37;;;;;;;11.23;8.10;;;6.40;89.90;;;;;;5052907;28;20449;-65
2021/11/10 08:51:04;;;;;;;18.43;8.60;;;6.50;89.20;;;;;;5052845;28;20453;-65
2021/11/10 08:53:32;;;;;;;14.90;8.43;;;6.50;89.00;;;;;;5052666;28;20506;-65
2021/11/10 08:55:59;;;;;;;12.27;8.80;;;6.60;89.00;;;;;;5052615;28;20481;-65
2021/11/10 08:58:27;;;;;;;10.20;8.83;;;6.70;88.90;;;;;;5052691;28;20810;-65
2021/11/10 09:00:57;;;;;;;13.60;8.60;;;6.70;88.30;;;;;;5053108;28;20450;-65
2021/11/10 09:03:27;;;;;;;13.33;8.30;;;6.90;88.30;;;;;;5056800;28;20465;-65
2021/11/10 09:05:54;;;;;;;13.57;8.03;;;6.90;88.60;;;;;;5056236;28;20447;-65
2021/11/10 09:08:23;;;;;;;13.33;8.57;;;7.00;87.40;;;;;;5056104;28;20806;-65
2021/11/10 09:10:49;;;;;;;11.30;8.67;;;7.10;87.30;;;;;;5056206;28;20449;-65
2021/11/10 09:13:16;;;;;;;14.50;7.90;;;7.30;87.10;;;;;;5056098;28;20843;-65
2021/11/10 09:15:43;;;;;;;14.00;8.37;;;7.40;86.50;;;;;;5056063;28;20792;-65
2021/11/10 09:18:11;;;;;;;12.50;7.23;;;7.40;85.80;;;;;;5056055;28;20818;-65
2021/11/10 09:20:44;;;;;;;13.87;9.10;;;7.50;85.40;;;;;;5056109;28;20433;-65
2021/11/10 09:23:12;;;;;;;11.50;7.37;;;7.60;85.20;;;;;;5055964;28;20473;-65
2021/11/10 09:25:39;;;;;;;13.00;7.37;;;7.70;84.70;;;;;;5055621;28;20847;-65
2021/11/10 09:28:08;;;;;;;18.50;8.30;;;7.80;84.20;;;;;;5055806;28;20449;-65
2021/11/10 09:30:38;;;;;;;11.33;7.80;;;7.90;84.70;;;;;;5055984;28;20499;-65
2021/11/10 09:33:07;;;;;;;11.03;7.90;;;8.00;85.30;;;;;;5055760;28;20476;-65
2021/11/10 09:35:35;;;;;;;12.33;8.00;;;8.20;85.00;;;;;;5055861;28;20450;-65
2021/11/10 09:38:04;;;;;;;16.43;7.93;;;8.30;84.30;;;;;;5055812;28;20475;-65
2021/11/10 09:40:33;;;;;;;12.20;6.83;;;8.40;83.50;;;;;;5056012;28;20453;-65
2021/11/10 09:43:01;;;;;;;13.50;7.17;;;8.50;83.00;;;;;;5055444;28;20477;-65
2021/11/10 09:45:32;;;;;;;15.23;7.33;;;8.70;82.20;;;;;;5055809;28;20437;-65
2021/11/10 09:47:59;;;;;;;9.17;7.07;;;8.70;81.60;;;;;;5055576;28;20469;-65
2021/11/10 09:50:27;;;;;;;12.10;7.60;;;8.80;81.30;;;;;;5055644;28;20453;-65
2021/11/10 09:52:55;;;;;;;10.30;6.87;;;9.00;81.40;;;;;;5055417;28;20466;-65
2021/11/10 09:55:26;;;;;;;10.30;7.43;;;9.20;80.60;;;;;;5055301;28;20910;-65
2021/11/10 09:57:54;;;;;;;12.00;7.30;;;9.40;79.80;;;;;;5055818;28;20430;-66
2021/11/10 10:00:25;;;;;;;12.13;7.17;;;9.60;79.40;;;;;;5055495;28;20445;-65
2021/11/10 10:02:52;;;;;;;10.20;6.40;;;9.70;78.90;;;;;;5055664;28;20477;-65
2021/11/10 10:05:21;;;;;;;9.97;7.00;;;9.90;78.40;;;;;;5055462;28;20453;-65
2021/11/10 10:07:51;;;;;;;13.50;8.70;;;10.00;76.90;;;;;;5055988;28;20859;-66
2021/11/10 10:10:18;;;;;;;12.10;7.73;;;10.20;76.50;;;;;;5055370;28;20438;-65
2021/11/10 10:12:48;;;;;;;9.67;6.90;;;10.40;75.70;;;;;;5054352;28;20473;-65
2021/11/10 10:15:17;;;;;;;11.33;8.30;;;10.60;75.30;;;;;;5054860;28;20539;-65
2021/11/10 10:17:46;;;;;;;13.50;7.77;;;10.80;75.50;;;;;;5055206;28;20447;-65
2021/11/10 10:20:23;;;;;;;20.33;7.30;;;11.00;74.80;;;;;;5055063;28;20545;-65
2021/11/10 10:22:51;;;;;;;11.23;7.13;;;11.10;74.60;;;;;;5055006;28;20468;-66
2021/11/10 10:25:18;;;;;;;13.47;6.90;;;11.30;74.20;;;;;;5054634;28;20956;-65
2021/11/10 10:27:55;;;;;;;10.50;6.70;;;11.50;73.20;;;;;;5054663;28;20547;-65
2021/11/10 10:30:34;;;;;;;12.47;6.90;;;11.70;73.00;;;;;;5054809;28;20437;-65
2021/11/10 10:33:03;;;;;;;12.73;7.83;;;11.80;72.00;;;;;;5054686;28;20478;-65
2021/11/10 10:35:36;;;;;;;13.27;7.20;;;11.90;70.90;;;;;;5054683;28;20477;-66
2021/11/10 10:38:06;;;;;;;13.47;7.27;;;12.00;70.20;;;;;;5054411;28;20458;-66
2021/11/10 10:40:33;;;;;;;9.70;7.47;;;12.10;70.40;;;;;;5054711;28;20430;-66
2021/11/10 10:43:03;;;;;;;12.03;7.50;;;12.20;70.70;;;;;;5054330;28;20849;-66
2021/11/10 10:45:37;;;;;;;7.87;6.90;;;12.30;70.40;;;;;;5054614;28;20460;-66
2021/11/10 10:48:07;;;;;;;12.50;7.47;;;12.50;69.50;;;;;;5054595;28;20432;-66
2021/11/10 10:50:37;;;;;;;10.33;7.67;;;12.60;67.20;;;;;;5054627;28;20430;-66
2021/11/10 10:53:06;;;;;;;10.40;7.77;;;12.80;65.90;;;;;;5054381;28;20480;-66
2021/11/10 10:55:39;;;;;;;8.40;7.07;;;13.00;65.90;;;;;;5054465;28;20481;-66
2021/11/10 10:58:12;;;;;;;12.30;6.47;;;13.30;64.90;;;;;;5054344;28;20429;-66
2021/11/10 11:00:40;;;;;;;9.40;6.90;;;13.60;63.70;;;;;;5055457;28;20480;-66
2021/11/10 11:03:47;;;;;;;11.33;6.20;;;13.80;62.40;;;;;;5054250;28;20465;-66
2021/11/10 11:06:23;;;;;;;7.17;5.47;;;14.10;59.10;;;;;;5012416;28;20427;-66
2021/11/10 11:08:50;;;;;;;8.37;5.73;;;14.20;57.70;;;;;;5012391;28;20454;-66
2021/11/10 11:11:23;;;;;;;7.50;5.50;;;14.10;57.50;;;;;;5035181;28;20521;-66
2021/11/10 11:13:53;;;;;;;12.20;5.73;;;14.10;57.00;;;;;;5053853;28;20485;-67
2021/11/10 11:16:25;;;;;;;6.70;5.50;;;14.10;57.10;;;;;;5054353;28;20441;-66
2021/11/10 11:19:10;;;;;;;11.33;5.87;;;14.20;56.80;;;;;;5053746;28;20905;-67
2021/11/10 11:21:56;;;;;;;17.50;6.63;;;14.30;56.70;;;;;;5054063;28;20469;-66
2021/11/10 11:24:35;;;;;;;11.37;5.93;;;14.40;55.90;;;;;;5053381;28;20469;-67
2021/11/10 11:27:17;;;;;;;10.83;6.00;;;14.50;55.20;;;;;;5053929;28;20469;-67
2021/11/10 11:29:52;;;;;;;11.60;6.77;;;14.70;55.60;;;;;;5053614;28;20775;-66
2021/11/10 11:32:22;;;;;;;7.70;5.73;;;14.80;54.20;;;;;;5053888;28;20456;-66
2021/11/10 11:34:55;;;;;;;11.53;6.53;;;15.00;53.70;;;;;;5053612;28;20481;-67
2021/11/10 11:37:23;;;;;;;9.60;5.90;;;15.20;53.50;;;;;;5053759;28;20434;-67
2021/11/10 11:39:51;;;;;;;6.53;5.73;;;15.20;53.20;;;;;;5054453;28;20476;-66
2021/11/10 11:42:18;;;;;;;13.90;7.73;;;15.20;53.10;;;;;;5053737;28;20485;-66
2021/11/10 11:44:47;;;;;;;10.80;7.30;;;15.30;53.10;;;;;;5053453;28;20461;-66
2021/11/10 11:47:18;;;;;;;12.27;6.43;;;15.40;53.00;;;;;;5053428;28;20453;-66
2021/11/10 11:49:45;;;;;;;8.80;6.33;;;15.30;52.30;;;;;;5053510;28;20434;-66
2021/11/10 11:52:14;;;;;;;9.93;6.00;;;15.20;52.80;;;;;;5053444;28;20449;-66
2021/11/10 11:54:44;;;;;;;9.67;6.13;;;15.00;53.10;;;;;;5052926;28;21007;-66
2021/11/10 11:57:12;;;;;;;11.73;6.77;;;14.90;53.70;;;;;;5054078;28;20442;-66
2021/11/10 11:59:40;;;;;;;12.50;7.10;;;14.70;54.40;;;;;;5053259;28;20466;-66
2021/11/10 12:02:30;;;;;;;8.83;6.37;;;14.60;54.90;;;;;;5052924;28;20461;-66
2021/11/10 12:04:58;;;;;;;7.70;6.67;;;14.70;55.20;;;;;;5050204;28;20449;-66
2021/11/10 12:07:42;;;;;;;10.03;6.57;;;14.90;55.30;;;;;;5053173;28;20450;-66
2021/11/10 12:10:35;;;;;;;10.57;7.30;;;15.30;54.30;;;;;;5052886;28;20968;-66
2021/11/10 12:13:14;;;;;;;10.10;6.00;;;15.80;53.00;;;;;;5043087;28;20580;-67
2021/11/10 12:16:19;;;;;;;11.13;6.70;;;16.10;52.10;;;;;;5052986;28;20465;-67
2021/11/10 12:19:04;;;;;;;10.17;6.03;;;16.20;50.90;;;;;;5011171;28;20443;-67
2021/11/10 12:21:40;;;;;;;13.40;7.10;;;16.20;51.80;;;;;;5009656;28;20459;-67
2021/11/10 12:24:16;;;;;;;11.20;6.50;;;16.10;51.30;;;;;;5038468;28;20476;-67
2021/11/10 12:27:13;;;;;;;10.03;7.10;;;16.10;51.40;;;;;;5053096;28;20437;-67
2021/11/10 12:29:42;;;;;;;10.27;7.13;;;16.30;51.00;;;;;;5052990;28;20449;-67
2021/11/10 12:32:10;;;;;;;13.43;7.17;;;16.50;50.50;;;;;;5053011;28;20442;-67
2021/11/10 12:34:38;;;;;;;7.83;6.07;;;16.70;50.40;;;;;;5052729;28;20490;-67
2021/11/10 12:37:09;;;;;;;10.10;5.60;;;16.70;50.30;;;;;;5054423;28;20456;-67
2021/11/10 12:39:41;;;;;;;13.30;7.67;;;16.70;50.40;;;;;;5056615;28;20909;-67
2021/11/10 12:42:10;;;;;;;10.77;6.70;;;16.80;50.50;;;;;;5056735;28;20473;-67
2021/11/10 12:44:40;;;;;;;11.67;7.20;;;16.60;50.30;;;;;;5056518;28;20461;-67
2021/11/10 12:47:09;;;;;;;11.20;7.10;;;16.50;50.60;;;;;;5056769;28;20450;-67
2021/11/10 12:49:36;;;;;;;12.80;7.73;;;16.30;50.10;;;;;;5056949;28;20499;-68
2021/11/10 12:52:18;;;;;;;10.70;6.97;;;16.00;50.10;;;;;;5056801;28;20820;-67
2021/11/10 12:54:47;;;;;;;9.20;6.43;;;15.80;50.50;;;;;;5056492;28;20485;-67
2021/11/10 12:57:30;;;;;;;8.67;7.70;;;15.50;51.10;;;;;;5056463;28;20452;-67
2021/11/10 12:59:57;;;;;;;9.30;7.03;;;15.30;51.50;;;;;;5056620;28;20433;-67